Time,TemperatureF,DewpointF,PressureIn,WindDirection,WindDirectionDegrees,WindSpeedMPH,WindSpeedGustMPH,Humidity,HourlyPrecipIn,Conditions,Clouds,dailyrainin,SolarRadiationWatts/m^2,SoftwareType,DateUTC
2013-04-21 00:03:00,32.1,27.8,29.95,NE,40,0.0,0.0,84,0.00,,,0.00,0,Wunderground v.1.15,2013-04-21 06:03:00,
2013-04-21 00:09:00,31.9,27.6,29.95,NE,40,0.0,0.0,84,0.00,,,0.00,0,Wunderground v.1.15,2013-04-21 06:09:00,
2013-04-21 00:14:00,31.6,27.3,29.95,NE,40,0.0,0.0,84,0.00,,,0.00,0,Wunderground v.1.15,2013-04-21 06:14:00,
2013-04-21 00:20:00,31.5,27.2,29.95,NE,40,0.0,0.0,84,0.00,,,0.00,0,Wunderground v.1.15,2013-04-21 06:20:00,
2013-04-21 00:26:00,31.5,27.2,29.95,NE,40,0.0,0.0,84,0.00,,,0.00,0,Wunderground v.1.15,2013-04-21 06:26:00,
2013-04-21 00:33:00,31.3,27.0,29.97,NE,40,0.0,0.0,84,0.00,,,0.00,0,Wunderground v.1.15,2013-04-21 06:33:00,
2013-04-21 00:38:00,31.2,26.9,29.97,NE,40,0.0,0.0,84,0.00,,,0.00,0,Wunderground v.1.15,2013-04-21 06:38:00,
2013-04-21 00:43:00,31.0,26.7,29.97,NE,40,0.0,0.0,84,0.00,,,0.00,0,Wunderground v.1.15,2013-04-21 06:43:00,
2013-04-21 00:49:00,30.7,26.4,29.97,NE,40,0.0,0.0,84,0.00,,,0.00,0,Wunderground v.1.15,2013-04-21 06:49:00,
2013-04-21 00:56:00,30.6,26.3,29.97,NE,40,0.0,0.0,84,0.00,,,0.00,0,Wunderground v.1.15,2013-04-21 06:56:00,
2013-04-21 01:03:00,30.4,26.4,29.97,NE,40,0.0,0.0,85,0.00,,,0.00,0,Wunderground v.1.15,2013-04-21 07:03:00,
2013-04-21 01:09:00,30.4,26.4,29.97,NE,40,0.0,0.0,85,0.00,,,0.00,0,Wunderground v.1.15,2013-04-21 07:09:00,
2013-04-21 01:14:00,30.3,26.3,29.97,NE,40,4.0,5.0,85,0.00,,,0.00,0,Wunderground v.1.15,2013-04-21 07:14:00,
2013-04-21 01:20:00,30.1,26.1,29.97,NE,40,5.0,5.0,85,0.00,,,0.00,0,Wunderground v.1.15,2013-04-21 07:20:00,
2013-04-21 01:26:00,30.1,26.1,29.97,NE,40,6.0,6.0,85,0.00,,,0.00,0,Wunderground v.1.15,2013-04-21 07:26:00,
2013-04-21 01:33:00,30.0,25.8,29.98,NE,40,5.0,6.0,84,0.00,,,0.00,0,Wunderground v.1.15,2013-04-21 07:33:00,
2013-04-21 01:38:00,29.8,25.6,29.98,NE,40,0.0,6.0,84,0.00,,,0.00,0,Wunderground v.1.15,2013-04-21 07:38:00,
2013-04-21 01:43:00,29.8,25.8,29.98,NE,40,6.0,8.0,85,0.00,,,0.00,0,Wunderground v.1.15,2013-04-21 07:43:00,
2013-04-21 01:49:00,29.8,25.8,29.97,NE,40,6.0,10.0,85,0.00,,,0.00,0,Wunderground v.1.15,2013-04-21 07:49:00,
2013-04-21 01:56:00,30.0,26.0,29.97,NE,40,5.0,6.0,85,0.00,,,0.00,0,Wunderground v.1.15,2013-04-21 07:56:00,
2013-04-21 02:01:00,30.1,25.8,29.97,NE,40,4.0,7.0,84,0.00,,,0.00,0,Wunderground v.1.15,2013-04-21 08:01:00,
2013-04-21 02:07:00,30.3,26.0,29.97,NE,40,0.0,7.0,84,0.00,,,0.00,0,Wunderground v.1.15,2013-04-21 08:07:00,
2013-04-21 02:12:00,30.3,25.8,29.97,NE,40,0.0,1.0,83,0.00,,,0.00,0,Wunderground v.1.15,2013-04-21 08:12:00,
2013-04-21 02:17:00,30.3,25.8,29.98,NE,40,0.0,1.0,83,0.00,,,0.00,0,Wunderground v.1.15,2013-04-21 08:17:00,
2013-04-21 02:22:00,30.3,25.8,29.98,NE,40,0.0,0.0,83,0.00,,,0.00,0,Wunderground v.1.15,2013-04-21 08:22:00,
2013-04-21 02:27:00,30.3,25.8,29.98,NE,40,9.0,11.0,83,0.00,,,0.00,0,Wunderground v.1.15,2013-04-21 08:27:00,
2013-04-21 02:32:00,30.1,25.6,29.98,NE,40,8.0,9.0,83,0.00,,,0.00,0,Wunderground v.1.15,2013-04-21 08:32:00,
2013-04-21 02:37:00,30.1,25.6,29.98,NE,40,8.0,9.0,83,0.00,,,0.00,0,Wunderground v.1.15,2013-04-21 08:37:00,
2013-04-21 02:42:00,30.1,25.3,29.98,NE,40,7.0,8.0,82,0.00,,,0.00,0,Wunderground v.1.15,2013-04-21 08:42:00,
2013-04-21 02:47:00,30.1,25.3,29.98,NE,40,6.0,8.0,82,0.00,,,0.00,0,Wunderground v.1.15,2013-04-21 08:47:00,
2013-04-21 02:52:00,30.1,25.3,29.98,NE,40,7.0,8.0,82,0.00,,,0.00,0,Wunderground v.1.15,2013-04-21 08:52:00,
2013-04-21 02:57:00,30.0,25.2,29.98,NE,40,10.0,11.0,82,0.00,,,0.00,0,Wunderground v.1.15,2013-04-21 08:57:00,
2013-04-21 03:03:00,30.0,25.5,29.98,NE,40,9.0,10.0,83,0.00,,,0.00,0,Wunderground v.1.15,2013-04-21 09:03:00,
2013-04-21 03:08:00,30.1,25.6,29.98,NNE,21,10.0,11.0,83,0.00,,,0.00,0,Wunderground v.1.15,2013-04-21 09:08:00,
2013-04-21 03:13:00,30.3,25.8,29.98,NW,317,10.0,12.0,83,0.00,,,0.00,0,Wunderground v.1.15,2013-04-21 09:13:00,
2013-04-21 03:18:00,30.4,25.6,29.98,WNW,294,11.0,13.0,82,0.00,,,0.00,0,Wunderground v.1.15,2013-04-21 09:18:00,
2013-04-21 03:23:00,30.6,25.8,29.98,WNW,294,9.0,11.0,82,0.00,,,0.00,0,Wunderground v.1.15,2013-04-21 09:23:00,
2013-04-21 03:28:00,30.7,25.9,29.98,West,281,10.0,13.0,82,0.00,,,0.00,0,Wunderground v.1.15,2013-04-21 09:28:00,
2013-04-21 03:33:00,30.6,25.5,29.99,West,277,10.0,12.0,81,0.00,,,0.00,0,Wunderground v.1.15,2013-04-21 09:33:00,
2013-04-21 03:39:00,30.6,25.2,29.99,West,277,11.0,12.0,80,0.00,,,0.00,0,Wunderground v.1.15,2013-04-21 09:39:00,
2013-04-21 03:44:00,30.3,24.6,29.99,West,277,10.0,11.0,79,0.00,,,0.00,0,Wunderground v.1.15,2013-04-21 09:44:00,
2013-04-21 03:49:00,30.1,24.4,29.99,West,277,9.0,11.0,79,0.00,,,0.00,0,Wunderground v.1.15,2013-04-21 09:49:00,
2013-04-21 03:54:00,30.0,24.3,29.99,West,277,8.0,11.0,79,0.00,,,0.00,0,Wunderground v.1.15,2013-04-21 09:54:00,
2013-04-21 03:59:00,29.8,24.1,29.99,West,277,10.0,11.0,79,0.00,,,0.00,0,Wunderground v.1.15,2013-04-21 09:59:00,
2013-04-21 04:04:00,29.5,23.8,29.99,West,277,9.0,11.0,79,0.00,,,0.00,0,Wunderground v.1.15,2013-04-21 10:04:00,
2013-04-21 04:09:00,29.4,23.7,29.99,West,277,9.0,12.0,79,0.00,,,0.00,0,Wunderground v.1.15,2013-04-21 10:09:00,
2013-04-21 04:14:00,29.3,23.6,29.99,West,277,7.0,11.0,79,0.00,,,0.00,0,Wunderground v.1.15,2013-04-21 10:14:00,
2013-04-21 04:19:00,29.1,23.4,29.99,West,277,8.0,11.0,79,0.00,,,0.00,0,Wunderground v.1.15,2013-04-21 10:19:00,
2013-04-21 04:24:00,29.0,23.6,29.99,West,277,7.0,9.0,80,0.00,,,0.00,0,Wunderground v.1.15,2013-04-21 10:24:00,
2013-04-21 04:29:00,29.0,23.6,30.00,West,277,6.0,9.0,80,0.00,,,0.00,0,Wunderground v.1.15,2013-04-21 10:29:00,
2013-04-21 04:34:00,28.8,23.4,30.00,West,277,9.0,9.0,80,0.00,,,0.00,0,Wunderground v.1.15,2013-04-21 10:34:00,
2013-04-21 04:39:00,28.7,23.3,30.00,West,277,5.0,9.0,80,0.00,,,0.00,0,Wunderground v.1.15,2013-04-21 10:39:00,
2013-04-21 04:44:00,28.5,23.1,30.00,West,277,0.0,8.0,80,0.00,,,0.00,0,Wunderground v.1.15,2013-04-21 10:44:00,
2013-04-21 04:49:00,28.4,23.0,30.00,West,277,0.0,8.0,80,0.00,,,0.00,0,Wunderground v.1.15,2013-04-21 10:49:00,
2013-04-21 04:54:00,27.9,22.5,30.00,West,277,0.0,2.0,80,0.00,,,0.00,0,Wunderground v.1.15,2013-04-21 10:54:00,
2013-04-21 04:59:00,27.8,22.4,30.00,West,277,0.0,2.0,80,0.00,,,0.00,0,Wunderground v.1.15,2013-04-21 10:59:00,
2013-04-21 05:04:00,27.5,22.1,30.00,West,277,0.0,0.0,80,0.00,,,0.00,0,Wunderground v.1.15,2013-04-21 11:04:00,
2013-04-21 05:09:00,27.2,21.8,30.00,West,277,0.0,0.0,80,0.00,,,0.00,0,Wunderground v.1.15,2013-04-21 11:09:00,
2013-04-21 05:14:00,27.0,21.7,30.01,West,277,0.0,0.0,80,0.00,,,0.00,0,Wunderground v.1.15,2013-04-21 11:14:00,
2013-04-21 05:19:00,26.7,21.4,30.01,West,277,9.0,10.0,80,0.00,,,0.00,0,Wunderground v.1.15,2013-04-21 11:19:00,
2013-04-21 05:24:00,26.4,21.4,30.01,West,277,6.0,10.0,81,0.00,,,0.00,0,Wunderground v.1.15,2013-04-21 11:24:00,
2013-04-21 05:29:00,26.1,21.1,30.02,West,277,7.0,10.0,81,0.00,,,0.00,0,Wunderground v.1.15,2013-04-21 11:29:00,
2013-04-21 05:34:00,26.0,21.0,30.02,West,277,0.0,9.0,81,0.00,,,0.00,0,Wunderground v.1.15,2013-04-21 11:34:00,
2013-04-21 05:39:00,25.8,20.8,30.02,West,277,3.0,9.0,81,0.00,,,0.00,0,Wunderground v.1.15,2013-04-21 11:39:00,
2013-04-21 05:44:00,25.7,20.7,30.02,West,277,7.0,8.0,81,0.00,,,0.00,0,Wunderground v.1.15,2013-04-21 11:44:00,
2013-04-21 05:49:00,25.7,21.0,30.02,West,277,7.0,8.0,82,0.00,,,0.00,0,Wunderground v.1.15,2013-04-21 11:49:00,
2013-04-21 05:54:00,25.7,21.0,30.02,West,277,6.0,8.0,82,0.00,,,0.00,0,Wunderground v.1.15,2013-04-21 11:54:00,
2013-04-21 05:59:00,25.8,21.1,30.02,West,277,7.0,9.0,82,0.00,,,0.00,0,Wunderground v.1.15,2013-04-21 11:59:00,
2013-04-21 06:06:00,25.8,21.1,30.02,West,277,6.0,7.0,82,0.00,,,0.00,0,Wunderground v.1.15,2013-04-21 12:06:00,
2013-04-21 06:11:00,26.0,21.0,30.02,West,277,4.0,6.0,81,0.00,,,0.00,0,Wunderground v.1.15,2013-04-21 12:11:00,
2013-04-21 06:16:00,26.1,21.1,30.03,West,277,6.0,6.0,81,0.00,,,0.00,0,Wunderground v.1.15,2013-04-21 12:16:00,
2013-04-21 06:21:00,26.3,21.0,30.03,West,277,9.0,9.0,80,0.00,,,0.00,5,Wunderground v.1.15,2013-04-21 12:21:00,
2013-04-21 06:26:00,26.3,21.0,30.03,West,277,10.0,11.0,80,0.00,,,0.00,7,Wunderground v.1.15,2013-04-21 12:26:00,
2013-04-21 06:31:00,26.4,20.8,30.04,West,277,10.0,11.0,79,0.00,,,0.00,11,Wunderground v.1.15,2013-04-21 12:31:00,
2013-04-21 06:36:00,26.4,20.8,30.04,West,276,9.0,11.0,79,0.00,,,0.00,16,Wunderground v.1.15,2013-04-21 12:36:00,
2013-04-21 06:41:00,26.6,21.0,30.04,West,276,7.0,9.0,79,0.00,,,0.00,19,Wunderground v.1.15,2013-04-21 12:41:00,
2013-04-21 06:46:00,26.7,21.1,30.05,West,275,11.0,12.0,79,0.00,,,0.00,23,Wunderground v.1.15,2013-04-21 12:46:00,
2013-04-21 06:51:00,27.0,21.4,30.05,West,274,10.0,13.0,79,0.00,,,0.00,26,Wunderground v.1.15,2013-04-21 12:51:00,
2013-04-21 06:56:00,27.2,21.2,30.05,West,272,12.0,14.0,78,0.00,,,0.00,25,Wunderground v.1.15,2013-04-21 12:56:00,
2013-04-21 07:01:00,27.3,21.0,30.05,West,271,10.0,11.0,77,0.00,,,0.00,28,Wunderground v.1.15,2013-04-21 13:01:00,
2013-04-21 07:06:00,27.5,21.2,30.05,West,271,8.0,12.0,77,0.00,,,0.00,32,Wunderground v.1.15,2013-04-21 13:06:00,
2013-04-21 07:11:00,27.6,21.3,30.05,West,271,5.0,9.0,77,0.00,,,0.00,39,Wunderground v.1.15,2013-04-21 13:11:00,
2013-04-21 07:17:00,27.5,21.2,30.06,West,261,8.0,11.0,77,0.00,,,0.00,116,Wunderground v.1.15,2013-04-21 13:17:00,
2013-04-21 07:22:00,27.6,21.6,30.06,SW,221,6.0,9.0,78,0.00,,,0.00,149,Wunderground v.1.15,2013-04-21 13:22:00,
2013-04-21 07:27:00,27.9,21.6,30.06,SW,221,0.0,9.0,77,0.00,,,0.00,163,Wunderground v.1.15,2013-04-21 13:27:00,
2013-04-21 07:32:00,28.5,21.9,30.07,SW,221,3.0,9.0,76,0.00,,,0.00,178,Wunderground v.1.15,2013-04-21 13:32:00,
2013-04-21 07:37:00,29.3,22.4,30.07,SW,221,0.0,9.0,75,0.00,,,0.00,193,Wunderground v.1.15,2013-04-21 13:37:00,
2013-04-21 07:42:00,30.0,22.7,30.07,SW,221,0.0,1.0,74,0.00,,,0.00,207,Wunderground v.1.15,2013-04-21 13:42:00,
2013-04-21 07:47:00,30.9,22.9,30.07,SW,221,0.0,7.0,72,0.00,,,0.00,227,Wunderground v.1.15,2013-04-21 13:47:00,
2013-04-21 07:52:00,31.9,23.6,30.07,SW,221,6.0,9.0,71,0.00,,,0.00,246,Wunderground v.1.15,2013-04-21 13:52:00,
2013-04-21 07:57:00,32.9,24.5,30.07,SW,221,6.0,9.0,71,0.00,,,0.00,262,Wunderground v.1.15,2013-04-21 13:57:00,
2013-04-21 08:02:00,33.8,25.4,30.07,SW,221,7.0,8.0,71,0.00,,,0.00,276,Wunderground v.1.15,2013-04-21 14:02:00,
2013-04-21 08:07:00,34.4,25.3,30.07,SW,222,9.0,9.0,69,0.00,,,0.00,297,Wunderground v.1.15,2013-04-21 14:07:00,
2013-04-21 08:13:00,35.3,25.8,30.07,SW,222,6.0,8.0,68,0.00,,,0.00,318,Wunderground v.1.15,2013-04-21 14:13:00,
2013-04-21 08:18:00,35.9,26.0,30.07,SW,222,5.0,8.0,67,0.00,,,0.00,334,Wunderground v.1.15,2013-04-21 14:18:00,
2013-04-21 08:23:00,36.5,25.8,30.07,SW,222,0.0,7.0,65,0.00,,,0.00,352,Wunderground v.1.15,2013-04-21 14:23:00,
2013-04-21 08:28:00,37.0,25.9,30.07,SW,222,0.0,7.0,64,0.00,,,0.00,367,Wunderground v.1.15,2013-04-21 14:28:00,
2013-04-21 08:33:00,37.6,26.1,30.07,SW,221,0.0,1.0,63,0.00,,,0.00,388,Wunderground v.1.15,2013-04-21 14:33:00,
2013-04-21 08:38:00,38.2,25.5,30.07,SW,221,0.0,1.0,60,0.00,,,0.00,408,Wunderground v.1.15,2013-04-21 14:38:00,
2013-04-21 08:44:00,39.1,26.0,30.07,SW,222,0.0,0.0,59,0.00,,,0.00,425,Wunderground v.1.15,2013-04-21 14:44:00,
2013-04-21 08:49:00,39.6,25.2,30.07,SW,222,0.0,0.0,56,0.00,,,0.00,443,Wunderground v.1.15,2013-04-21 14:49:00,
2013-04-21 08:54:00,40.3,25.4,30.07,SW,222,0.0,0.0,55,0.00,,,0.00,461,Wunderground v.1.15,2013-04-21 14:54:00,
2013-04-21 08:59:00,41.1,25.7,30.07,SW,222,0.0,0.0,54,0.00,,,0.00,478,Wunderground v.1.15,2013-04-21 14:59:00,
2013-04-21 09:04:00,41.3,24.5,30.06,SW,222,0.0,0.0,51,0.00,,,0.00,496,Wunderground v.1.15,2013-04-21 15:04:00,
2013-04-21 09:09:00,41.8,24.0,30.06,SW,222,0.0,0.0,49,0.00,,,0.00,513,Wunderground v.1.15,2013-04-21 15:09:00,
2013-04-21 09:14:00,42.2,25.3,30.06,SW,222,8.0,11.0,51,0.00,,,0.00,529,Wunderground v.1.15,2013-04-21 15:14:00,
2013-04-21 09:19:00,42.6,24.3,30.06,WSW,246,8.0,14.0,48,0.00,,,0.00,545,Wunderground v.1.15,2013-04-21 15:19:00,
2013-04-21 09:24:00,42.9,24.0,30.06,WSW,252,5.0,12.0,47,0.00,,,0.00,561,Wunderground v.1.15,2013-04-21 15:24:00,
2013-04-21 09:29:00,43.3,24.9,30.06,WSW,252,0.0,12.0,48,0.00,,,0.00,578,Wunderground v.1.15,2013-04-21 15:29:00,
2013-04-21 09:34:00,43.6,22.0,30.06,WSW,252,0.0,5.0,42,0.00,,,0.00,594,Wunderground v.1.15,2013-04-21 15:34:00,
2013-04-21 09:39:00,43.9,22.8,30.06,WSW,252,4.0,8.0,43,0.00,,,0.00,610,Wunderground v.1.15,2013-04-21 15:39:00,
2013-04-21 09:44:00,44.2,22.0,30.06,WSW,252,0.0,1.0,41,0.00,,,0.00,628,Wunderground v.1.15,2013-04-21 15:44:00,
2013-04-21 09:49:00,44.5,22.2,30.06,WSW,252,0.0,1.0,41,0.00,,,0.00,643,Wunderground v.1.15,2013-04-21 15:49:00,
2013-04-21 09:54:00,44.8,22.5,30.06,WSW,252,0.0,0.0,41,0.00,,,0.00,659,Wunderground v.1.15,2013-04-21 15:54:00,
2013-04-21 09:59:00,44.9,21.4,30.06,WSW,252,0.0,0.0,39,0.00,,,0.00,673,Wunderground v.1.15,2013-04-21 15:59:00,
2013-04-21 10:04:00,45.1,20.3,30.06,WSW,252,0.0,0.0,37,0.00,,,0.00,686,Wunderground v.1.15,2013-04-21 16:04:00,
2013-04-21 10:09:00,45.2,20.4,30.06,WSW,252,0.0,0.0,37,0.00,,,0.00,701,Wunderground v.1.15,2013-04-21 16:09:00,
2013-04-21 10:14:00,45.7,22.7,30.06,WSW,252,0.0,0.0,40,0.00,,,0.00,717,Wunderground v.1.15,2013-04-21 16:14:00,
2013-04-21 10:19:00,46.0,23.0,30.06,WSW,252,0.0,0.0,40,0.00,,,0.00,728,Wunderground v.1.15,2013-04-21 16:19:00,
2013-04-21 10:24:00,46.7,22.4,30.06,WSW,252,0.0,0.0,38,0.00,,,0.00,744,Wunderground v.1.15,2013-04-21 16:24:00,
2013-04-21 10:29:00,46.8,21.2,30.06,WSW,252,0.0,0.0,36,0.00,,,0.00,759,Wunderground v.1.15,2013-04-21 16:29:00,
2013-04-21 10:34:00,47.0,22.7,30.06,WSW,252,0.0,0.0,38,0.00,,,0.00,773,Wunderground v.1.15,2013-04-21 16:34:00,
2013-04-21 10:39:00,47.4,19.7,30.06,WSW,252,3.0,12.0,33,0.00,,,0.00,786,Wunderground v.1.15,2013-04-21 16:39:00,
2013-04-21 10:44:00,48.2,20.4,30.06,WSW,252,0.0,3.0,33,0.00,,,0.00,796,Wunderground v.1.15,2013-04-21 16:44:00,
2013-04-21 10:49:00,48.8,19.5,30.06,WSW,252,0.0,10.0,31,0.00,,,0.00,809,Wunderground v.1.15,2013-04-21 16:49:00,
2013-04-21 10:54:00,49.2,20.6,30.06,WSW,252,0.0,3.0,32,0.00,,,0.00,821,Wunderground v.1.15,2013-04-21 16:54:00,
2013-04-21 10:59:00,49.9,20.4,30.06,WSW,252,0.0,9.0,31,0.00,,,0.00,831,Wunderground v.1.15,2013-04-21 16:59:00,
2013-04-21 11:04:00,50.7,21.9,30.06,WSW,241,4.0,11.0,32,0.00,,,0.00,846,Wunderground v.1.15,2013-04-21 17:04:00,
2013-04-21 11:09:00,51.1,18.2,30.06,SSW,211,0.0,11.0,27,0.00,,,0.00,851,Wunderground v.1.15,2013-04-21 17:09:00,
2013-04-21 11:14:00,51.1,19.1,30.05,SSW,197,1.0,5.0,28,0.00,,,0.00,860,Wunderground v.1.15,2013-04-21 17:14:00,
2013-04-21 11:19:00,51.0,19.8,30.05,SSW,197,6.0,10.0,29,0.00,,,0.00,870,Wunderground v.1.15,2013-04-21 17:19:00,
2013-04-21 11:24:00,51.4,20.2,30.05,South,186,7.0,14.0,29,0.00,,,0.00,881,Wunderground v.1.15,2013-04-21 17:24:00,
2013-04-21 11:29:00,52.2,20.9,30.04,South,185,0.0,14.0,29,0.00,,,0.00,888,Wunderground v.1.15,2013-04-21 17:29:00,
2013-04-21 11:34:00,52.0,18.1,30.04,South,185,1.0,8.0,26,0.00,,,0.00,895,Wunderground v.1.15,2013-04-21 17:34:00,
2013-04-21 11:39:00,51.7,19.6,30.04,South,179,9.0,10.0,28,0.00,,,0.00,904,Wunderground v.1.15,2013-04-21 17:39:00,
2013-04-21 11:44:00,52.8,22.2,30.04,South,179,14.0,15.0,30,0.00,,,0.00,911,Wunderground v.1.15,2013-04-21 17:44:00,
2013-04-21 11:49:00,53.3,21.8,30.04,South,184,6.0,15.0,29,0.00,,,0.00,919,Wunderground v.1.15,2013-04-21 17:49:00,
2013-04-21 11:54:00,53.6,19.5,30.04,South,184,0.0,10.0,26,0.00,,,0.00,926,Wunderground v.1.15,2013-04-21 17:54:00,
2013-04-21 11:59:00,53.9,22.3,30.03,South,181,0.0,12.0,29,0.00,,,0.00,932,Wunderground v.1.15,2013-04-21 17:59:00,
2013-04-21 12:06:00,54.4,19.3,30.03,SSE,165,0.0,16.0,25,0.00,,,0.00,939,Wunderground v.1.15,2013-04-21 18:06:00,
2013-04-21 12:11:00,54.1,19.0,30.03,SSE,165,0.0,6.0,25,0.00,,,0.00,942,Wunderground v.1.15,2013-04-21 18:11:00,
2013-04-21 12:16:00,54.1,20.8,30.01,SSE,148,8.0,23.0,27,0.00,,,0.00,951,Wunderground v.1.15,2013-04-21 18:16:00,
2013-04-21 12:21:00,54.5,21.2,30.01,SSE,150,9.0,13.0,27,0.00,,,0.00,958,Wunderground v.1.15,2013-04-21 18:21:00,
2013-04-21 12:27:00,55.1,18.9,30.01,SSE,163,11.0,14.0,24,0.00,,,0.00,962,Wunderground v.1.15,2013-04-21 18:27:00,
2013-04-21 12:32:00,55.4,19.2,30.00,South,169,12.0,13.0,24,0.00,,,0.00,963,Wunderground v.1.15,2013-04-21 18:32:00,
2013-04-21 12:37:00,55.9,20.5,30.00,South,169,5.0,13.0,25,0.00,,,0.00,965,Wunderground v.1.15,2013-04-21 18:37:00,
2013-04-21 12:43:00,56.3,18.9,30.00,South,178,0.0,9.0,23,0.00,,,0.00,970,Wunderground v.1.15,2013-04-21 18:43:00,
2013-04-21 12:48:00,56.3,18.9,29.99,South,181,0.0,11.0,23,0.00,,,0.00,979,Wunderground v.1.15,2013-04-21 18:48:00,
2013-04-21 12:53:00,56.6,21.1,29.99,South,181,2.0,3.0,25,0.00,,,0.00,912,Wunderground v.1.15,2013-04-21 18:53:00,
2013-04-21 12:58:00,56.5,20.1,29.99,South,181,0.0,8.0,24,0.00,,,0.00,979,Wunderground v.1.15,2013-04-21 18:58:00,
2013-04-21 13:04:00,55.6,18.3,29.97,South,181,0.0,2.0,23,0.00,,,0.00,983,Wunderground v.1.15,2013-04-21 19:04:00,
2013-04-21 13:09:00,55.7,17.4,29.97,South,180,0.0,5.0,22,0.00,,,0.00,984,Wunderground v.1.15,2013-04-21 19:09:00,
2013-04-21 13:14:00,56.5,20.1,29.97,South,189,7.0,9.0,24,0.00,,,0.00,983,Wunderground v.1.15,2013-04-21 19:14:00,
2013-04-21 13:19:00,57.5,18.9,29.97,South,183,10.0,12.0,22,0.00,,,0.00,981,Wunderground v.1.15,2013-04-21 19:19:00,
2013-04-21 13:24:00,58.0,20.4,29.97,South,183,0.0,11.0,23,0.00,,,0.00,981,Wunderground v.1.15,2013-04-21 19:24:00,
2013-04-21 13:29:00,58.3,19.6,29.97,South,183,7.0,11.0,22,0.00,,,0.00,983,Wunderground v.1.15,2013-04-21 19:29:00,
2013-04-21 13:34:00,58.9,17.8,29.95,South,183,3.0,12.0,20,0.00,,,0.00,983,Wunderground v.1.15,2013-04-21 19:34:00,
2013-04-21 13:39:00,59.5,17.1,29.95,South,183,0.0,12.0,19,0.00,,,0.00,977,Wunderground v.1.15,2013-04-21 19:39:00,
2013-04-21 13:44:00,59.0,15.5,29.95,South,183,0.0,3.0,18,0.00,,,0.00,976,Wunderground v.1.15,2013-04-21 19:44:00,
2013-04-21 13:49:00,58.9,17.8,29.95,South,183,0.0,3.0,20,0.00,,,0.00,983,Wunderground v.1.15,2013-04-21 19:49:00,
2013-04-21 13:54:00,59.3,18.2,29.95,South,183,0.0,8.0,20,0.00,,,0.00,988,Wunderground v.1.15,2013-04-21 19:54:00,
2013-04-21 13:59:00,59.6,18.4,29.95,South,183,7.0,9.0,20,0.00,,,0.00,995,Wunderground v.1.15,2013-04-21 19:59:00,
2013-04-21 14:04:00,59.6,17.2,29.95,SSW,209,4.0,11.0,19,0.00,,,0.00,1004,Wunderground v.1.15,2013-04-21 20:04:00,
2013-04-21 14:09:00,59.8,21.9,29.95,SSW,209,4.0,11.0,23,0.00,,,0.00,991,Wunderground v.1.15,2013-04-21 20:09:00,
2013-04-21 14:14:00,59.9,16.2,29.95,SE,142,1.0,5.0,18,0.00,,,0.00,993,Wunderground v.1.15,2013-04-21 20:14:00,
2013-04-21 14:19:00,59.3,17.0,29.94,SE,142,0.0,5.0,19,0.00,,,0.00,1004,Wunderground v.1.15,2013-04-21 20:19:00,
2013-04-21 14:24:00,59.2,19.2,29.94,SE,142,9.0,10.0,21,0.00,,,0.00,984,Wunderground v.1.15,2013-04-21 20:24:00,
2013-04-21 14:29:00,59.9,20.9,29.92,SSE,147,8.0,13.0,22,0.00,,,0.00,970,Wunderground v.1.15,2013-04-21 20:29:00,
2013-04-21 14:34:00,60.5,19.2,29.92,SE,145,0.0,9.0,20,0.00,,,0.00,385,Wunderground v.1.15,2013-04-21 20:34:00,
2013-04-21 14:39:00,59.6,17.2,29.92,SE,145,0.0,9.0,19,0.00,,,0.00,497,Wunderground v.1.15,2013-04-21 20:39:00,
2013-04-21 14:44:00,58.4,17.4,29.92,SE,145,0.0,2.0,20,0.00,,,0.00,645,Wunderground v.1.15,2013-04-21 20:44:00,
2013-04-21 14:49:00,57.6,19.0,29.92,SE,145,0.0,2.0,22,0.00,,,0.00,364,Wunderground v.1.15,2013-04-21 20:49:00,
2013-04-21 14:54:00,57.2,17.6,29.92,SE,145,0.0,2.0,21,0.00,,,0.00,404,Wunderground v.1.15,2013-04-21 20:54:00,
2013-04-21 14:59:00,57.3,19.8,29.91,SSE,149,0.0,9.0,23,0.00,,,0.00,357,Wunderground v.1.15,2013-04-21 20:59:00,
2013-04-21 15:04:00,57.5,19.9,29.91,South,170,0.0,16.0,23,0.00,,,0.00,339,Wunderground v.1.15,2013-04-21 21:04:00,
2013-04-21 15:09:00,57.5,16.7,29.91,South,170,0.0,16.0,20,0.00,,,0.00,422,Wunderground v.1.15,2013-04-21 21:09:00,
2013-04-21 15:14:00,57.5,18.9,29.90,SSE,161,18.0,23.0,22,0.00,,,0.00,401,Wunderground v.1.15,2013-04-21 21:14:00,
2013-04-21 15:19:00,58.0,19.3,29.90,South,173,15.0,23.0,22,0.00,,,0.00,475,Wunderground v.1.15,2013-04-21 21:19:00,
2013-04-21 15:24:00,58.0,18.2,29.90,SSE,168,5.0,15.0,21,0.00,,,0.00,390,Wunderground v.1.15,2013-04-21 21:24:00,
2013-04-21 15:29:00,58.3,20.6,29.90,SSE,165,5.0,15.0,23,0.00,,,0.00,380,Wunderground v.1.15,2013-04-21 21:29:00,
2013-04-21 15:34:00,58.4,18.6,29.90,SSE,156,4.0,14.0,21,0.00,,,0.00,299,Wunderground v.1.15,2013-04-21 21:34:00,
2013-04-21 15:39:00,58.3,17.3,29.90,SSE,156,0.0,14.0,20,0.00,,,0.00,357,Wunderground v.1.15,2013-04-21 21:39:00,
2013-04-21 15:44:00,58.0,17.1,29.89,SSE,156,0.0,5.0,20,0.00,,,0.00,406,Wunderground v.1.15,2013-04-21 21:44:00,
2013-04-21 15:49:00,57.6,16.8,29.89,SSE,156,0.0,5.0,20,0.00,,,0.00,362,Wunderground v.1.15,2013-04-21 21:49:00,
2013-04-21 15:54:00,57.5,16.7,29.89,SSE,156,0.0,0.0,20,0.00,,,0.00,371,Wunderground v.1.15,2013-04-21 21:54:00,
2013-04-21 15:59:00,57.6,19.0,29.89,SSE,156,0.0,0.0,22,0.00,,,0.00,492,Wunderground v.1.15,2013-04-21 21:59:00,
2013-04-21 16:04:00,58.0,15.9,29.89,SSE,156,0.0,0.0,19,0.00,,,0.00,411,Wunderground v.1.15,2013-04-21 22:04:00,
2013-04-21 16:09:00,58.1,17.2,29.89,SSE,156,8.0,8.0,20,0.00,,,0.00,540,Wunderground v.1.15,2013-04-21 22:09:00,
2013-04-21 16:15:00,58.4,18.6,29.87,SSE,156,0.0,9.0,21,0.00,,,0.00,622,Wunderground v.1.15,2013-04-21 22:15:00,
2013-04-21 16:20:00,59.0,16.7,29.87,SSE,156,0.0,1.0,19,0.00,,,0.00,726,Wunderground v.1.15,2013-04-21 22:20:00,
2013-04-21 16:25:00,59.2,14.3,29.87,SSE,156,0.0,7.0,17,0.00,,,0.00,367,Wunderground v.1.15,2013-04-21 22:25:00,
2013-04-21 16:30:00,59.3,15.7,29.86,SSE,156,0.0,1.0,18,0.00,,,0.00,469,Wunderground v.1.15,2013-04-21 22:30:00,
2013-04-21 16:36:00,59.5,13.2,29.86,SSE,156,0.0,10.0,16,0.00,,,0.00,255,Wunderground v.1.15,2013-04-21 22:36:00,
2013-04-21 16:41:00,59.3,13.0,29.86,SSE,156,0.0,1.0,16,0.00,,,0.00,290,Wunderground v.1.15,2013-04-21 22:41:00,
2013-04-21 16:46:00,59.0,12.8,29.86,SSE,159,9.0,9.0,16,0.00,,,0.00,292,Wunderground v.1.15,2013-04-21 22:46:00,
2013-04-21 16:51:00,58.9,12.7,29.86,South,190,4.0,9.0,16,0.00,,,0.00,260,Wunderground v.1.15,2013-04-21 22:51:00,
2013-04-21 16:56:00,58.7,12.6,29.86,West,264,9.0,21.0,16,0.00,,,0.00,209,Wunderground v.1.15,2013-04-21 22:56:00,
2013-04-21 17:01:00,58.6,13.9,29.85,West,264,0.0,9.0,17,0.00,,,0.00,223,Wunderground v.1.15,2013-04-21 23:01:00,
2013-04-21 17:06:00,58.3,13.6,29.85,NNW,342,0.0,10.0,17,0.00,,,0.00,211,Wunderground v.1.15,2013-04-21 23:06:00,
2013-04-21 17:11:00,58.1,13.4,29.85,NNW,342,0.0,2.0,17,0.00,,,0.00,640,Wunderground v.1.15,2013-04-21 23:11:00,
2013-04-21 17:17:00,58.3,14.9,29.85,NNW,342,0.0,2.0,18,0.00,,,0.00,561,Wunderground v.1.15,2013-04-21 23:17:00,
2013-04-21 17:22:00,58.6,12.5,29.85,NNW,342,0.0,1.0,16,0.00,,,0.00,237,Wunderground v.1.15,2013-04-21 23:22:00,
2013-04-21 17:27:00,58.4,12.3,29.85,NNW,345,0.0,1.0,16,0.00,,,0.00,596,Wunderground v.1.15,2013-04-21 23:27:00,
2013-04-21 17:32:00,58.4,12.3,29.85,NNW,345,0.0,0.0,16,0.00,,,0.00,192,Wunderground v.1.15,2013-04-21 23:32:00,
2013-04-21 17:37:00,58.3,12.2,29.85,North,5,2.0,8.0,16,0.00,,,0.00,185,Wunderground v.1.15,2013-04-21 23:37:00,
2013-04-21 17:42:00,58.0,12.0,29.85,North,5,0.0,2.0,16,0.00,,,0.00,185,Wunderground v.1.15,2013-04-21 23:42:00,
2013-04-21 17:47:00,57.8,11.8,29.85,North,5,0.0,2.0,16,0.00,,,0.00,214,Wunderground v.1.15,2013-04-21 23:47:00,
2013-04-21 17:52:00,57.6,11.7,29.85,North,5,0.0,0.0,16,0.00,,,0.00,172,Wunderground v.1.15,2013-04-21 23:52:00,
2013-04-21 17:57:00,57.6,13.0,29.85,North,5,0.0,0.0,17,0.00,,,0.00,144,Wunderground v.1.15,2013-04-21 23:57:00,
2013-04-21 18:02:00,57.5,13.0,29.85,North,5,6.0,7.0,17,0.00,,,0.00,116,Wunderground v.1.15,2013-04-22 00:02:00,
2013-04-21 18:07:00,57.5,13.0,29.85,WSW,257,10.0,16.0,17,0.00,,,0.00,123,Wunderground v.1.15,2013-04-22 00:07:00,
2013-04-21 18:13:00,57.3,14.1,29.85,WSW,254,12.0,17.0,18,0.00,,,0.00,139,Wunderground v.1.15,2013-04-22 00:13:00,
2013-04-21 18:18:00,57.2,14.0,29.85,WSW,252,6.0,17.0,18,0.00,,,0.00,128,Wunderground v.1.15,2013-04-22 00:18:00,
2013-04-21 18:23:00,57.2,15.2,29.85,WSW,250,12.0,18.0,19,0.00,,,0.00,56,Wunderground v.1.15,2013-04-22 00:23:00,
2013-04-21 18:28:00,57.2,14.0,29.85,WSW,238,16.0,22.0,18,0.00,,,0.00,114,Wunderground v.1.15,2013-04-22 00:28:00,
2013-04-21 18:33:00,57.0,13.8,29.84,SW,234,14.0,20.0,18,0.00,,,0.00,95,Wunderground v.1.15,2013-04-22 00:33:00,
2013-04-21 18:38:00,56.7,13.6,29.84,WSW,245,15.0,21.0,18,0.00,,,0.00,83,Wunderground v.1.15,2013-04-22 00:38:00,
2013-04-21 18:44:00,56.5,9.3,29.84,West,280,19.0,20.0,15,0.00,,,0.00,109,Wunderground v.1.15,2013-04-22 00:44:00,
2013-04-21 18:49:00,56.5,12.1,29.85,West,271,13.0,20.0,17,0.00,,,0.00,195,Wunderground v.1.15,2013-04-22 00:49:00,
2013-04-21 18:54:00,56.6,12.2,29.85,West,277,11.0,19.0,17,0.00,,,0.00,76,Wunderground v.1.15,2013-04-22 00:54:00,
2013-04-21 18:59:00,56.9,13.8,29.85,WSW,257,13.0,19.0,18,0.00,,,0.00,181,Wunderground v.1.15,2013-04-22 00:59:00,
2013-04-21 19:04:00,57.0,15.1,29.85,WSW,245,14.0,18.0,19,0.00,,,0.00,153,Wunderground v.1.15,2013-04-22 01:04:00,
2013-04-21 19:09:00,57.0,16.3,29.85,WSW,250,14.0,20.0,20,0.00,,,0.00,134,Wunderground v.1.15,2013-04-22 01:09:00,
2013-04-21 19:14:00,57.0,15.1,29.85,WSW,247,10.0,17.0,19,0.00,,,0.00,70,Wunderground v.1.15,2013-04-22 01:14:00,
2013-04-21 19:19:00,56.9,16.2,29.85,West,263,12.0,17.0,20,0.00,,,0.00,56,Wunderground v.1.15,2013-04-22 01:19:00,
2013-04-21 19:24:00,56.5,9.3,29.85,WNW,290,16.0,18.0,15,0.00,,,0.00,42,Wunderground v.1.15,2013-04-22 01:24:00,
2013-04-21 19:29:00,56.0,8.9,29.85,WNW,284,18.0,21.0,15,0.00,,,0.00,32,Wunderground v.1.15,2013-04-22 01:29:00,
2013-04-21 19:34:00,55.6,8.6,29.85,WNW,290,14.0,19.0,15,0.00,,,0.00,19,Wunderground v.1.15,2013-04-22 01:34:00,
2013-04-21 19:39:00,55.1,8.2,29.85,WNW,286,15.0,19.0,15,0.00,,,0.00,11,Wunderground v.1.15,2013-04-22 01:39:00,
2013-04-21 19:44:00,54.7,9.3,29.85,West,281,12.0,17.0,16,0.00,,,0.00,7,Wunderground v.1.15,2013-04-22 01:44:00,
2013-04-21 19:49:00,54.1,8.8,29.85,West,277,11.0,17.0,16,0.00,,,0.00,0,Wunderground v.1.15,2013-04-22 01:49:00,
2013-04-21 19:54:00,53.6,9.8,29.85,West,277,9.0,14.0,17,0.00,,,0.00,0,Wunderground v.1.15,2013-04-22 01:54:00,
2013-04-21 19:59:00,53.2,10.7,29.85,West,277,8.0,14.0,18,0.00,,,0.00,0,Wunderground v.1.15,2013-04-22 01:59:00,
2013-04-21 20:04:00,52.6,11.4,29.86,West,277,7.0,9.0,19,0.00,,,0.00,0,Wunderground v.1.15,2013-04-22 02:04:00,
2013-04-21 20:09:00,51.9,12.0,29.86,West,277,6.0,9.0,20,0.00,,,0.00,0,Wunderground v.1.15,2013-04-22 02:09:00,
2013-04-21 20:14:00,51.3,11.5,29.86,West,277,8.0,9.0,20,0.00,,,0.00,0,Wunderground v.1.15,2013-04-22 02:14:00,
2013-04-21 20:19:00,50.7,11.0,29.86,West,277,5.0,9.0,20,0.00,,,0.00,0,Wunderground v.1.15,2013-04-22 02:19:00,
2013-04-21 20:24:00,50.1,10.5,29.86,West,277,0.0,6.0,20,0.00,,,0.00,0,Wunderground v.1.15,2013-04-22 02:24:00,
2013-04-21 20:29:00,49.5,10.0,29.86,West,277,6.0,8.0,20,0.00,,,0.00,0,Wunderground v.1.15,2013-04-22 02:29:00,
2013-04-21 20:34:00,48.8,11.6,29.87,West,277,0.0,6.0,22,0.00,,,0.00,0,Wunderground v.1.15,2013-04-22 02:34:00,
2013-04-21 20:39:00,48.2,12.1,29.87,West,277,0.0,6.0,23,0.00,,,0.00,0,Wunderground v.1.15,2013-04-22 02:39:00,
2013-04-21 20:44:00,47.6,11.6,29.87,West,277,0.0,1.0,23,0.00,,,0.00,0,Wunderground v.1.15,2013-04-22 02:44:00,
2013-04-21 20:49:00,47.0,11.1,29.89,West,277,0.0,1.0,23,0.00,,,0.00,0,Wunderground v.1.15,2013-04-22 02:49:00,
2013-04-21 20:54:00,46.5,10.6,29.89,West,277,0.0,0.0,23,0.00,,,0.00,0,Wunderground v.1.15,2013-04-22 02:54:00,
2013-04-21 20:59:00,46.1,10.3,29.89,West,277,0.0,0.0,23,0.00,,,0.00,0,Wunderground v.1.15,2013-04-22 02:59:00,
2013-04-21 21:04:00,45.5,10.7,29.89,West,277,0.0,0.0,24,0.00,,,0.00,0,Wunderground v.1.15,2013-04-22 03:04:00,
2013-04-21 21:09:00,44.9,10.2,29.89,WNW,289,5.0,11.0,24,0.00,,,0.00,0,Wunderground v.1.15,2013-04-22 03:09:00,
2013-04-21 21:14:00,44.5,8.9,29.89,WNW,303,7.0,10.0,23,0.00,,,0.00,0,Wunderground v.1.15,2013-04-22 03:14:00,
2013-04-21 21:19:00,44.3,9.7,29.89,NW,304,5.0,10.0,24,0.00,,,0.00,0,Wunderground v.1.15,2013-04-22 03:19:00,
2013-04-21 21:24:00,44.3,10.6,29.89,NW,304,7.0,7.0,25,0.00,,,0.00,0,Wunderground v.1.15,2013-04-22 03:24:00,
2013-04-21 21:33:00,44.1,11.3,29.90,NW,304,0.0,3.0,26,0.00,,,0.00,0,Wunderground v.1.15,2013-04-22 03:33:00,
2013-04-21 21:38:00,43.9,10.3,29.90,NW,304,0.0,5.0,25,0.00,,,0.00,0,Wunderground v.1.15,2013-04-22 03:38:00,
2013-04-21 21:45:00,43.8,10.2,29.90,NW,304,0.0,1.0,25,0.00,,,0.00,0,Wunderground v.1.15,2013-04-22 03:45:00,
2013-04-21 21:54:00,43.3,9.8,29.90,NW,304,0.0,0.0,25,0.00,,,0.00,0,Wunderground v.1.15,2013-04-22 03:54:00,
2013-04-21 21:59:00,43.2,9.7,29.90,NW,304,0.0,0.0,25,0.00,,,0.00,0,Wunderground v.1.15,2013-04-22 03:59:00,
2013-04-21 22:01:00,43.2,10.6,29.90,NW,304,0.0,0.0,26,0.00,,,0.00,0,Wunderground v.1.15,2013-04-22 04:01:00,
2013-04-21 22:06:00,43.1,11.3,29.90,NW,304,0.0,0.0,27,0.00,,,0.00,0,Wunderground v.1.15,2013-04-22 04:06:00,
2013-04-21 22:11:00,42.9,10.3,29.90,NW,304,0.0,0.0,26,0.00,,,0.00,0,Wunderground v.1.15,2013-04-22 04:11:00,
2013-04-21 22:17:00,42.8,11.9,29.91,NW,304,0.0,0.0,28,0.00,,,0.00,0,Wunderground v.1.15,2013-04-22 04:17:00,
2013-04-21 22:22:00,42.6,11.7,29.91,NW,304,6.0,8.0,28,0.00,,,0.00,0,Wunderground v.1.15,2013-04-22 04:22:00,
2013-04-21 22:27:00,42.2,12.2,29.91,NW,304,5.0,8.0,29,0.00,,,0.00,0,Wunderground v.1.15,2013-04-22 04:27:00,
2013-04-21 22:33:00,41.8,11.8,29.91,NW,304,5.0,6.0,29,0.00,,,0.00,0,Wunderground v.1.15,2013-04-22 04:33:00,
2013-04-21 22:38:00,41.3,11.4,29.91,NW,304,5.0,6.0,29,0.00,,,0.00,0,Wunderground v.1.15,2013-04-22 04:38:00,
2013-04-21 22:43:00,41.1,12.7,29.91,NW,304,5.0,6.0,31,0.00,,,0.00,0,Wunderground v.1.15,2013-04-22 04:43:00,
2013-04-21 22:48:00,40.6,12.3,29.90,NW,304,4.0,7.0,31,0.00,,,0.00,0,Wunderground v.1.15,2013-04-22 04:48:00,
2013-04-21 22:53:00,40.3,12.7,29.90,NW,304,6.0,8.0,32,0.00,,,0.00,0,Wunderground v.1.15,2013-04-22 04:53:00,
2013-04-21 22:58:00,40.1,12.6,29.90,NW,304,8.0,10.0,32,0.00,,,0.00,0,Wunderground v.1.15,2013-04-22 04:58:00,
2013-04-21 23:03:00,39.8,13.7,29.90,NW,304,7.0,8.0,34,0.00,,,0.00,0,Wunderground v.1.15,2013-04-22 05:03:00,
2013-04-21 23:08:00,39.6,12.1,29.90,NW,304,6.0,8.0,32,0.00,,,0.00,0,Wunderground v.1.15,2013-04-22 05:08:00,
2013-04-21 23:13:00,39.3,11.9,29.90,NW,304,7.0,8.0,32,0.00,,,0.00,0,Wunderground v.1.15,2013-04-22 05:13:00,
2013-04-21 23:18:00,39.2,13.1,29.90,NW,304,9.0,9.0,34,0.00,,,0.00,0,Wunderground v.1.15,2013-04-22 05:18:00,
2013-04-21 23:24:00,39.1,15.0,29.90,WNW,292,10.0,10.0,37,0.00,,,0.00,0,Wunderground v.1.15,2013-04-22 05:24:00,
2013-04-21 23:29:00,39.1,13.7,29.90,WNW,286,9.0,11.0,35,0.00,,,0.00,0,Wunderground v.1.15,2013-04-22 05:29:00,
2013-04-21 23:34:00,39.1,13.7,29.90,West,281,10.0,11.0,35,0.00,,,0.00,0,Wunderground v.1.15,2013-04-22 05:34:00,
2013-04-21 23:39:00,39.1,13.1,29.90,West,280,10.0,11.0,34,0.00,,,0.00,0,Wunderground v.1.15,2013-04-22 05:39:00,
2013-04-21 23:44:00,39.2,13.8,29.90,West,279,9.0,11.0,35,0.00,,,0.00,0,Wunderground v.1.15,2013-04-22 05:44:00,
2013-04-21 23:49:00,39.3,13.9,29.89,West,277,10.0,11.0,35,0.00,,,0.00,0,Wunderground v.1.15,2013-04-22 05:49:00,
2013-04-21 23:54:00,39.3,13.9,29.89,West,275,11.0,12.0,35,0.00,,,0.00,0,Wunderground v.1.15,2013-04-22 05:54:00,
2013-04-21 23:59:00,39.5,14.1,29.89,West,274,8.0,12.0,35,0.00,,,0.00,0,Wunderground v.1.15,2013-04-22 05:59:00,